Time;durP1;ratioP1;P1;durP2;ratioP2;P2;SDS_P1;SDS_P2;PMS_P1;PMS_P2;Temp;Humidity;BMP_temperature;BMP_pressure;BME280_temperature;BME280_humidity;BME280_pressure;Samples;Min_cycle;Max_cycle;Signal;HPM_P1;HPM_P2
2022/09/28 00:01:05;;;;;;;0.50;0.10;;;10.60;1.00;;;;;;5033058;28;20528;-79
2022/09/28 00:03:33;;;;;;;0.50;0.10;;;10.50;1.00;;;;;;5047078;28;20489;-79
2022/09/28 00:06:02;;;;;;;0.60;0.10;;;10.60;1.00;;;;;;5056247;28;20552;-79
2022/09/28 00:08:30;;;;;;;0.60;0.10;;;10.60;1.00;;;;;;5056213;28;20434;-78
2022/09/28 00:10:58;;;;;;;0.60;0.10;;;10.60;1.00;;;;;;5056580;28;20454;-78
2022/09/28 00:13:26;;;;;;;0.50;0.10;;;10.60;1.00;;;;;;5056219;28;20477;-79
2022/09/28 00:16:03;;;;;;;0.50;0.30;;;10.60;1.00;;;;;;5056399;28;20435;-79
2022/09/28 00:18:32;;;;;;;0.60;0.10;;;10.60;1.00;;;;;;5056124;28;20426;-78
2022/09/28 00:21:04;;;;;;;0.50;0.20;;;10.60;1.00;;;;;;5056003;28;20859;-79
2022/09/28 00:23:33;;;;;;;0.50;0.10;;;10.60;1.00;;;;;;5055925;28;20553;-79
2022/09/28 00:26:05;;;;;;;0.53;0.10;;;10.60;1.00;;;;;;5055626;28;20532;-79
2022/09/28 00:28:33;;;;;;;0.60;0.10;;;10.50;1.00;;;;;;5055492;28;20481;-78
2022/09/28 00:31:02;;;;;;;0.50;0.10;;;10.50;1.00;;;;;;5055559;28;20462;-77
2022/09/28 00:33:30;;;;;;;0.60;0.10;;;10.50;1.00;;;;;;5055187;28;20509;-78
2022/09/28 00:35:58;;;;;;;0.60;0.10;;;10.60;1.00;;;;;;5055836;28;20899;-78
2022/09/28 00:38:28;;;;;;;0.57;0.10;;;10.60;1.00;;;;;;5055660;28;20500;-78
2022/09/28 00:40:58;;;;;;;0.50;0.10;;;10.50;1.00;;;;;;5054763;28;20418;-77
2022/09/28 00:43:26;;;;;;;0.57;0.10;;;10.50;1.00;;;;;;5054637;28;20465;-77
2022/09/28 00:45:58;;;;;;;0.60;0.30;;;10.50;1.00;;;;;;5055489;28;20470;-77
2022/09/28 00:48:32;;;;;;;0.60;0.20;;;10.50;1.00;;;;;;5054964;28;20808;-78
2022/09/28 00:51:04;;;;;;;0.57;0.10;;;10.50;1.00;;;;;;5054766;28;20453;-78
2022/09/28 00:53:34;;;;;;;0.50;0.10;;;10.50;1.00;;;;;;5055609;28;20887;-79
2022/09/28 00:56:08;;;;;;;0.50;0.10;;;10.50;1.00;;;;;;5056577;28;20765;-79
2022/09/28 00:58:41;;;;;;;0.60;0.10;;;10.50;1.00;;;;;;5057566;28;20442;-79
2022/09/28 01:01:09;;;;;;;0.60;0.10;;;10.60;1.00;;;;;;5059641;28;20916;-78
2022/09/28 01:03:40;;;;;;;0.50;0.10;;;10.60;1.00;;;;;;5057916;28;20668;-78
2022/09/28 01:06:09;;;;;;;0.50;0.10;;;10.50;1.00;;;;;;5056571;28;20454;-78
2022/09/28 01:08:38;;;;;;;0.50;0.10;;;10.50;1.00;;;;;;5055373;28;20446;-79
2022/09/28 01:11:06;;;;;;;0.50;0.10;;;10.50;2.50;;;;;;5039518;28;20451;-77
2022/09/28 01:13:34;;;;;;;0.50;0.10;;;10.50;3.80;;;;;;5035765;28;20537;-79
2022/09/28 01:16:12;;;;;;;0.50;0.10;;;10.50;6.90;;;;;;5034424;28;20439;-77
2022/09/28 01:18:52;;;;;;;0.60;0.10;;;10.50;9.00;;;;;;5040490;28;20868;-79
2022/09/28 01:21:23;;;;;;;0.57;0.10;;;10.60;10.60;;;;;;5039882;28;20435;-78
2022/09/28 01:24:13;;;;;;;0.50;0.10;;;10.60;10.90;;;;;;5056954;28;20532;-77
2022/09/28 01:26:47;;;;;;;0.50;0.10;;;10.60;14.90;;;;;;5059580;28;20521;-77
2022/09/28 01:29:25;;;;;;;0.50;0.10;;;10.60;16.60;;;;;;5061741;28;20481;-78
2022/09/28 01:32:00;;;;;;;0.50;0.10;;;10.60;15.20;;;;;;5059319;28;20501;-79
2022/09/28 01:34:37;;;;;;;0.70;0.50;;;10.60;15.80;;;;;;5055421;28;20489;-79
2022/09/28 01:37:09;;;;;;;0.60;0.10;;;10.60;18.90;;;;;;5055196;28;20461;-78
2022/09/28 01:39:42;;;;;;;0.50;0.10;;;10.60;19.60;;;;;;5055025;28;20489;-78
2022/09/28 01:42:17;;;;;;;1.13;1.13;;;10.50;20.70;;;;;;5054893;28;20459;-78
2022/09/28 01:44:48;;;;;;;0.50;0.10;;;10.40;23.30;;;;;;5055050;28;20465;-79
2022/09/28 01:47:20;;;;;;;1.37;0.53;;;10.40;26.80;;;;;;5054556;28;20521;-78
2022/09/28 01:49:52;;;;;;;0.60;0.10;;;10.40;31.10;;;;;;5054558;28;20446;-78
2022/09/28 01:52:24;;;;;;;0.60;0.10;;;10.40;36.40;;;;;;5053906;28;20479;-78
2022/09/28 01:54:57;;;;;;;0.80;0.30;;;10.40;38.30;;;;;;5053238;28;20496;-77
2022/09/28 01:57:32;;;;;;;0.50;0.10;;;10.40;41.40;;;;;;5052034;28;20504;-78
2022/09/28 02:00:04;;;;;;;0.57;0.10;;;10.40;45.90;;;;;;5034047;28;20450;-78
2022/09/28 02:02:37;;;;;;;0.50;0.20;;;10.40;48.70;;;;;;5033010;28;20610;-78
2022/09/28 02:05:12;;;;;;;0.50;0.10;;;10.40;51.00;;;;;;5033995;28;20863;-77
2022/09/28 02:07:45;;;;;;;0.60;0.20;;;10.40;50.50;;;;;;5033310;28;20474;-79
2022/09/28 02:10:15;;;;;;;0.50;0.10;;;10.40;51.70;;;;;;5032206;28;21034;-78
2022/09/28 02:12:48;;;;;;;0.60;0.20;;;10.40;57.10;;;;;;5032763;28;20534;-78
2022/09/28 02:15:20;;;;;;;0.50;0.10;;;10.30;61.90;;;;;;5032836;28;20451;-78
2022/09/28 02:17:49;;;;;;;0.50;0.10;;;10.30;66.80;;;;;;5033070;28;20447;-78
2022/09/28 02:20:17;;;;;;;1.20;0.70;;;10.40;71.30;;;;;;5033293;28;20844;-78
2022/09/28 02:22:49;;;;;;;0.50;0.10;;;10.40;69.40;;;;;;5032687;28;20468;-78
2022/09/28 02:25:26;;;;;;;0.50;0.10;;;10.40;71.50;;;;;;5033402;28;20443;-77
2022/09/28 02:27:59;;;;;;;0.50;0.10;;;10.50;69.40;;;;;;5054117;23;21091;-75
2022/09/28 02:30:30;;;;;;;0.60;0.10;;;10.50;69.50;;;;;;5031984;28;20856;-74
2022/09/28 02:33:03;;;;;;;0.50;0.10;;;10.50;66.50;;;;;;5032725;28;20451;-73
2022/09/28 02:35:32;;;;;;;3.80;0.53;;;;;;;;;;5032492;28;20874;-74
2022/09/28 02:38:00;;;;;;;0.50;0.10;;;10.40;48.90;;;;;;5032305;28;20463;-74
2022/09/28 02:40:32;;;;;;;0.50;0.10;;;10.40;44.30;;;;;;5032629;28;20878;-74
2022/09/28 02:43:10;;;;;;;0.50;0.20;;;10.30;41.60;;;;;;5032177;28;20781;-74
2022/09/28 02:45:50;;;;;;;0.50;0.20;;;10.30;35.00;;;;;;5031907;28;20443;-74
2022/09/28 02:48:31;;;;;;;0.90;0.30;;;10.20;35.00;;;;;;5032275;28;20483;-74
2022/09/28 02:51:20;;;;;;;0.50;0.10;;;10.10;39.00;;;;;;5032453;28;20790;-74
2022/09/28 02:54:16;;;;;;;0.50;0.10;;;10.10;40.10;;;;;;5032781;28;20937;-74
2022/09/28 02:56:53;;;;;;;0.53;0.10;;;;;;;;;;5042095;28;20553;-74
2022/09/28 02:59:36;;;;;;;0.50;0.10;;;10.00;28.50;;;;;;5040615;28;20465;-74
2022/09/28 03:02:15;;;;;;;0.50;0.10;;;10.00;26.50;;;;;;5034271;28;20965;-73
2022/09/28 03:04:48;;;;;;;0.50;0.10;;;10.00;27.50;;;;;;5043873;28;20534;-72
2022/09/28 03:07:23;;;;;;;0.50;0.10;;;10.00;22.50;;;;;;5053028;28;20625;-74
2022/09/28 03:09:57;;;;;;;0.50;0.10;;;10.00;14.80;;;;;;5054037;28;20512;-73
2022/09/28 03:12:28;;;;;;;0.50;0.10;;;10.10;10.80;;;;;;5018000;28;20513;-74
2022/09/28 03:15:14;;;;;;;0.50;0.10;;;10.10;12.00;;;;;;5038208;28;20448;-73
2022/09/28 03:17:41;;;;;;;0.50;0.10;;;10.10;1.00;;;;;;5032962;28;20575;-75
2022/09/28 03:20:10;;;;;;;0.50;0.10;;;10.10;1.00;;;;;;5033151;28;20485;-74
2022/09/28 03:22:38;;;;;;;0.50;0.10;;;10.00;1.00;;;;;;5032718;28;20991;-74
2022/09/28 03:25:07;;;;;;;0.50;0.10;;;10.00;1.00;;;;;;5032321;28;20471;-75
2022/09/28 03:27:35;;;;;;;0.50;0.10;;;10.00;1.00;;;;;;5034085;28;20502;-74
2022/09/28 03:30:03;;;;;;;0.50;0.10;;;10.10;1.00;;;;;;5041096;28;21194;-74
2022/09/28 03:32:32;;;;;;;0.50;0.10;;;10.00;1.00;;;;;;5043769;28;20475;-74
2022/09/28 03:35:00;;;;;;;0.50;0.20;;;10.00;1.00;;;;;;5032800;28;20443;-75
2022/09/28 03:37:28;;;;;;;0.50;0.10;;;10.00;1.00;;;;;;5032400;28;20485;-73
2022/09/28 03:39:56;;;;;;;0.50;0.10;;;10.00;1.00;;;;;;5034532;28;20448;-74
2022/09/28 03:42:24;;;;;;;0.57;0.20;;;10.00;1.00;;;;;;5039506;28;20457;-74
2022/09/28 03:44:52;;;;;;;0.50;0.10;;;;;;;;;;5035811;28;20443;-75
2022/09/28 03:47:20;;;;;;;0.50;0.10;;;;;;;;;;5037948;28;20479;-75
2022/09/28 03:49:50;;;;;;;0.50;0.10;;;;;;;;;;5038487;28;20470;-75
2022/09/28 03:52:17;;;;;;;0.50;0.10;;;10.10;1.00;;;;;;5038653;28;20473;-76
2022/09/28 03:54:45;;;;;;;0.50;0.10;;;10.10;1.00;;;;;;5037663;28;20835;-76
2022/09/28 03:57:16;;;;;;;0.50;0.10;;;10.00;1.00;;;;;;5036851;28;20459;-76
2022/09/28 03:59:43;;;;;;;0.50;0.10;;;10.00;1.00;;;;;;5036399;28;20448;-75
2022/09/28 04:02:11;;;;;;;0.50;0.10;;;10.00;1.00;;;;;;5034357;28;20869;-75
2022/09/28 04:04:39;;;;;;;0.50;0.30;;;10.00;1.00;;;;;;5035642;28;20446;-76
2022/09/28 04:07:08;;;;;;;0.50;0.10;;;10.00;1.00;;;;;;5035078;28;20494;-76
2022/09/28 04:09:36;;;;;;;0.50;0.10;;;10.00;1.00;;;;;;5037766;28;20451;-74
2022/09/28 04:12:04;;;;;;;0.80;0.30;;;10.00;1.00;;;;;;5032641;28;20487;-74
2022/09/28 04:14:32;;;;;;;0.50;0.10;;;10.00;1.00;;;;;;5034442;28;20498;-74
2022/09/28 04:17:00;;;;;;;0.50;0.20;;;10.00;1.00;;;;;;5041224;28;20467;-74
2022/09/28 04:19:28;;;;;;;0.50;0.10;;;10.00;1.00;;;;;;5044639;28;20470;-74
2022/09/28 04:21:56;;;;;;;0.50;0.10;;;9.90;1.00;;;;;;5044223;28;20451;-74
2022/09/28 04:24:25;;;;;;;0.50;0.10;;;9.90;1.00;;;;;;5039976;28;20481;-75
2022/09/28 04:29:14;;;;;;;2.40;0.67;;;9.90;1.00;;;;;;5042004;28;20978;-74
2022/09/28 04:29:40;;;;;;;0.50;0.10;;;10.00;1.00;;;;;;5047528;28;20439;-76
2022/09/28 04:32:08;;;;;;;2.30;2.10;;;10.00;1.00;;;;;;5047378;28;20458;-74
2022/09/28 04:34:36;;;;;;;0.60;0.30;;;10.00;1.00;;;;;;5054535;28;20435;-74
2022/09/28 04:37:09;;;;;;;0.50;0.10;;;10.00;1.00;;;;;;5055958;28;20498;-75
2022/09/28 04:39:39;;;;;;;0.50;0.10;;;10.00;1.00;;;;;;5043428;28;20452;-76
2022/09/28 04:42:11;;;;;;;0.50;0.17;;;10.10;1.00;;;;;;5041304;28;21109;-75
2022/09/28 04:44:39;;;;;;;0.50;0.10;;;10.10;1.00;;;;;;5042602;28;20443;-75
2022/09/28 04:47:07;;;;;;;0.50;0.10;;;10.10;1.00;;;;;;5041372;28;20475;-74
2022/09/28 04:49:35;;;;;;;0.50;0.10;;;10.10;1.00;;;;;;5041288;28;20444;-75
2022/09/28 04:52:04;;;;;;;0.50;0.10;;;10.20;1.00;;;;;;5040124;28;20443;-76
2022/09/28 04:54:32;;;;;;;0.60;0.10;;;;;;;;;;5039097;28;20509;-75
2022/09/28 04:57:02;;;;;;;0.50;0.10;;;10.20;1.00;;;;;;5034432;28;20525;-75
2022/09/28 04:59:30;;;;;;;0.50;0.10;;;10.20;1.00;;;;;;5035107;28;20487;-73
2022/09/28 05:01:58;;;;;;;1.03;0.50;;;10.20;1.00;;;;;;5035097;28;20447;-74
2022/09/28 05:04:27;;;;;;;0.50;0.10;;;;;;;;;;5034867;28;20443;-74
2022/09/28 05:06:54;;;;;;;0.50;0.10;;;10.20;1.00;;;;;;5035119;28;20463;-74
2022/09/28 05:09:22;;;;;;;0.50;0.10;;;10.20;1.00;;;;;;5034243;28;20523;-74
2022/09/28 05:11:51;;;;;;;0.50;0.10;;;10.20;1.00;;;;;;5036254;28;21004;-73
2022/09/28 05:14:21;;;;;;;0.50;0.10;;;10.20;1.00;;;;;;5037542;28;20956;-74
2022/09/28 05:16:49;;;;;;;0.50;0.10;;;10.20;1.00;;;;;;5038087;28;20455;-73
2022/09/28 05:19:17;;;;;;;0.50;0.10;;;10.20;1.00;;;;;;5029290;28;20465;-73
2022/09/28 05:21:47;;;;;;;0.50;0.10;;;10.20;1.00;;;;;;5043634;28;20447;-73
2022/09/28 05:24:15;;;;;;;0.50;0.10;;;10.20;1.00;;;;;;5034341;28;20436;-74
2022/09/28 05:26:43;;;;;;;0.50;0.20;;;10.30;1.00;;;;;;5021638;28;20885;-73
2022/09/28 05:29:11;;;;;;;0.50;0.10;;;10.30;1.00;;;;;;5021324;28;20994;-74
2022/09/28 05:31:40;;;;;;;0.50;0.10;;;;;;;;;;5025075;28;20435;-73
2022/09/28 05:34:08;;;;;;;0.50;0.20;;;10.40;1.00;;;;;;5029088;28;20487;-74
2022/09/28 05:36:38;;;;;;;0.50;0.10;;;10.40;1.00;;;;;;5020149;28;20460;-75
2022/09/28 05:39:06;;;;;;;0.50;0.10;;;10.40;1.00;;;;;;5028160;28;20435;-72
2022/09/28 05:41:33;;;;;;;0.50;0.10;;;10.40;1.00;;;;;;5037207;28;20942;-74
2022/09/28 05:44:01;;;;;;;0.50;0.10;;;10.40;1.00;;;;;;5036808;28;20451;-75
2022/09/28 05:46:29;;;;;;;0.50;0.17;;;10.40;1.00;;;;;;5037592;28;20455;-76
2022/09/28 05:48:59;;;;;;;0.50;0.10;;;10.40;1.00;;;;;;5037567;28;20487;-74
2022/09/28 05:51:27;;;;;;;0.60;0.10;;;10.30;1.00;;;;;;5017882;28;20499;-77
2022/09/28 05:53:55;;;;;;;0.80;0.80;;;10.40;1.00;;;;;;5050307;28;20451;-78
2022/09/28 05:56:30;;;;;;;0.50;0.10;;;10.40;1.00;;;;;;5046028;28;20454;-74
2022/09/28 05:58:58;;;;;;;0.50;0.10;;;10.40;1.00;;;;;;5047760;28;20446;-74
2022/09/28 06:01:26;;;;;;;0.77;0.47;;;10.40;1.00;;;;;;5035778;28;20452;-75
2022/09/28 06:03:53;;;;;;;0.50;0.10;;;10.40;1.00;;;;;;5039294;28;20447;-75
2022/09/28 06:06:23;;;;;;;0.50;0.10;;;11.00;1.00;;;;;;5022345;28;20960;-75
2022/09/28 06:08:50;;;;;;;0.70;0.20;;;10.40;1.00;;;;;;5012842;28;20514;-74
2022/09/28 06:11:18;;;;;;;0.50;0.10;;;10.40;1.00;;;;;;5023847;28;20506;-74
2022/09/28 06:13:46;;;;;;;0.50;0.10;;;10.40;1.00;;;;;;5028425;28;21163;-75
2022/09/28 06:16:15;;;;;;;0.50;0.10;;;10.40;1.00;;;;;;5038303;28;20446;-76
2022/09/28 06:18:43;;;;;;;0.53;0.10;;;10.40;1.00;;;;;;5037276;28;20460;-73
2022/09/28 06:21:12;;;;;;;0.50;0.10;;;10.40;1.00;;;;;;5033090;28;20448;-75
2022/09/28 06:23:41;;;;;;;0.50;0.10;;;10.40;1.00;;;;;;5033229;28;20497;-76
2022/09/28 06:26:16;;;;;;;0.50;0.10;;;10.40;1.00;;;;;;5033461;28;20431;-74
2022/09/28 06:28:44;;;;;;;0.50;0.20;;;10.40;1.00;;;;;;5013265;28;20484;-74
2022/09/28 06:31:12;;;;;;;0.50;0.10;;;10.40;1.00;;;;;;5052262;28;20439;-76
2022/09/28 06:33:40;;;;;;;0.50;0.10;;;10.40;1.00;;;;;;5053465;28;20450;-74
2022/09/28 06:36:09;;;;;;;0.50;0.10;;;10.40;1.00;;;;;;5051598;28;20496;-76
2022/09/28 06:38:36;;;;;;;0.50;0.10;;;10.40;1.00;;;;;;5033228;28;20464;-76
2022/09/28 06:41:06;;;;;;;0.50;0.10;;;10.40;1.00;;;;;;5033327;28;20451;-76
2022/09/28 06:43:34;;;;;;;0.50;0.10;;;10.40;1.00;;;;;;5032429;28;20448;-75
2022/09/28 06:46:02;;;;;;;0.50;0.10;;;10.50;1.00;;;;;;5032824;28;20789;-74
2022/09/28 06:48:32;;;;;;;0.50;0.10;;;10.50;1.00;;;;;;5033219;28;20876;-74
2022/09/28 06:51:00;;;;;;;0.50;0.10;;;10.50;1.00;;;;;;5033689;28;20800;-75
2022/09/28 06:53:29;;;;;;;0.50;0.10;;;10.60;1.00;;;;;;5032141;28;20455;-74
2022/09/28 06:55:57;;;;;;;0.50;0.10;;;10.60;1.00;;;;;;5032754;28;20517;-74
2022/09/28 06:58:27;;;;;;;0.50;0.10;;;10.70;1.00;;;;;;5032108;28;20844;-74
2022/09/28 07:00:58;;;;;;;0.70;0.50;;;10.70;1.00;;;;;;5032398;28;20481;-74
2022/09/28 07:03:26;;;;;;;0.60;0.10;;;10.70;1.00;;;;;;5032661;28;20451;-73
2022/09/28 07:05:55;;;;;;;0.60;0.10;;;7.50;1.00;;;;;;5032552;28;20444;-74
2022/09/28 07:08:25;;;;;;;0.50;0.10;;;10.60;1.00;;;;;;5032703;28;20947;-74
2022/09/28 07:10:55;;;;;;;0.50;0.10;;;10.50;1.00;;;;;;5033127;28;20431;-74
2022/09/28 07:13:24;;;;;;;0.50;0.10;;;10.50;1.00;;;;;;5032820;28;20439;-75
2022/09/28 07:16:13;;;;;;;0.50;0.10;;;10.50;1.00;;;;;;5032037;28;20909;-74
2022/09/28 07:18:41;;;;;;;0.50;0.10;;;10.60;1.00;;;;;;5034019;28;20490;-74
2022/09/28 07:21:09;;;;;;;0.50;0.10;;;10.60;1.00;;;;;;5034818;28;20439;-73
2022/09/28 07:23:53;;;;;;;0.60;0.10;;;10.60;1.00;;;;;;5033586;28;20817;-75
2022/09/28 07:26:21;;;;;;;0.50;0.10;;;10.60;1.00;;;;;;5032055;28;21003;-74
2022/09/28 07:28:51;;;;;;;0.50;0.10;;;10.60;1.00;;;;;;5031997;28;20878;-74
2022/09/28 07:31:21;;;;;;;0.57;0.20;;;10.60;1.00;;;;;;5018875;28;20448;-74
2022/09/28 07:33:50;;;;;;;0.60;0.50;;;10.70;1.00;;;;;;5031815;28;20709;-74
2022/09/28 07:36:19;;;;;;;0.50;0.10;;;10.70;1.00;;;;;;5032678;28;20809;-75
2022/09/28 07:38:47;;;;;;;0.50;0.10;;;10.70;1.00;;;;;;5033613;28;20467;-74
2022/09/28 07:41:20;;;;;;;0.50;0.17;;;10.70;1.00;;;;;;5033484;28;20443;-74
2022/09/28 07:43:48;;;;;;;0.60;0.40;;;10.70;1.00;;;;;;5031781;28;20513;-75
2022/09/28 07:46:16;;;;;;;0.70;0.40;;;10.70;1.00;;;;;;5032061;28;20482;-74
2022/09/28 07:48:45;;;;;;;0.57;0.20;;;10.70;1.00;;;;;;5031358;28;20969;-74
2022/09/28 07:51:13;;;;;;;0.60;0.27;;;10.70;1.00;;;;;;5032814;28;20447;-75
2022/09/28 07:53:41;;;;;;;0.50;0.10;;;10.70;1.00;;;;;;5035548;28;20486;-75
2022/09/28 07:56:09;;;;;;;0.50;0.10;;;10.70;1.00;;;;;;5035638;28;20846;-73
2022/09/28 07:58:38;;;;;;;0.50;0.10;;;10.80;1.00;;;;;;5035526;28;20470;-73
2022/09/28 08:01:09;;;;;;;0.50;0.10;;;10.80;1.00;;;;;;5035540;28;20431;-73
2022/09/28 08:03:38;;;;;;;0.60;0.10;;;10.80;1.00;;;;;;5035325;28;20447;-75
2022/09/28 08:06:11;;;;;;;0.70;0.43;;;10.80;1.00;;;;;;5035359;28;20866;-73
2022/09/28 08:08:43;;;;;;;0.60;0.10;;;12.70;1.00;;;;;;5035493;28;20869;-75
2022/09/28 08:11:11;;;;;;;0.50;0.10;;;10.70;1.00;;;;;;5025280;28;21010;-74
2022/09/28 08:13:40;;;;;;;0.80;0.37;;;10.70;1.00;;;;;;5014224;28;20459;-75
2022/09/28 08:16:07;;;;;;;0.50;0.10;;;10.70;1.00;;;;;;5034753;28;20926;-74
2022/09/28 08:18:35;;;;;;;0.60;0.10;;;10.90;1.00;;;;;;5035434;28;20459;-75
2022/09/28 08:23:52;;;;;;;0.60;0.10;;;11.00;1.00;;;;;;5032641;28;21016;-73
2022/09/28 08:26:20;;;;;;;0.60;0.10;;;11.00;1.00;;;;;;5023316;28;20494;-74
2022/09/28 08:28:48;;;;;;;0.60;0.10;;;11.10;1.00;;;;;;5048893;23;20495;-76
2022/09/28 08:31:16;;;;;;;0.60;0.23;;;11.20;1.00;;;;;;5042717;28;20470;-77
2022/09/28 08:33:44;;;;;;;1.07;0.97;;;11.20;1.00;;;;;;5046862;28;20480;-76
2022/09/28 08:36:12;;;;;;;0.60;0.10;;;11.30;1.00;;;;;;5041527;28;20435;-75
2022/09/28 08:38:40;;;;;;;0.60;0.20;;;11.30;1.00;;;;;;5058016;28;20486;-76
2022/09/28 08:41:18;;;;;;;0.60;0.10;;;11.40;1.00;;;;;;5037915;28;20448;-78
2022/09/28 08:44:12;;;;;;;0.60;0.20;;;11.50;1.00;;;;;;5035196;28;20443;-78
2022/09/28 08:46:44;;;;;;;0.60;0.10;;;11.40;1.00;;;;;;5032934;28;20439;-77
2022/09/28 08:49:18;;;;;;;0.60;0.10;;;11.50;1.00;;;;;;5035477;28;20571;-77
2022/09/28 08:51:59;;;;;;;0.60;0.10;;;11.60;1.00;;;;;;5035337;28;20451;-77
2022/09/28 08:54:37;;;;;;;0.60;0.10;;;11.70;1.00;;;;;;5035335;28;20463;-77
2022/09/28 08:57:11;;;;;;;1.00;0.40;;;11.80;1.00;;;;;;5034574;28;20486;-75
2022/09/28 08:59:46;;;;;;;0.60;0.20;;;11.70;1.00;;;;;;5034413;28;20447;-76
2022/09/28 09:02:18;;;;;;;0.60;0.10;;;11.80;1.00;;;;;;5027021;28;20474;-77
2022/09/28 09:04:46;;;;;;;0.57;0.10;;;11.80;1.00;;;;;;5034273;28;20432;-77
2022/09/28 09:07:28;;;;;;;0.60;0.10;;;11.90;1.00;;;;;;5035095;28;20455;-73
2022/09/28 09:10:04;;;;;;;0.60;0.10;;;11.90;1.00;;;;;;5033976;28;20553;-75
2022/09/28 09:12:42;;;;;;;0.60;0.10;;;11.90;1.00;;;;;;5045462;28;20451;-74
2022/09/28 09:15:29;;;;;;;0.60;0.10;;;12.00;1.00;;;;;;5033881;28;20510;-75
2022/09/28 09:18:09;;;;;;;0.60;0.10;;;12.20;1.00;;;;;;5032245;28;20497;-75
2022/09/28 09:20:45;;;;;;;0.60;0.10;;;12.30;1.00;;;;;;5037431;28;20471;-76
2022/09/28 09:23:19;;;;;;;0.60;0.10;;;12.30;1.00;;;;;;5030800;28;20443;-75
2022/09/28 09:25:51;;;;;;;0.70;0.20;;;12.30;1.00;;;;;;5054858;28;20492;-75
2022/09/28 09:28:56;;;;;;;0.90;0.43;;;12.30;1.00;;;;;;5044172;28;20475;-76
2022/09/28 09:31:44;;;;;;;0.60;0.10;;;12.20;1.00;;;;;;5025157;28;20479;-75
2022/09/28 09:34:36;;;;;;;0.60;0.10;;;12.10;1.00;;;;;;5013769;28;20437;-75
2022/09/28 09:37:27;;;;;;;0.60;0.10;;;12.10;1.00;;;;;;5013585;28;20444;-75
2022/09/28 09:40:07;;;;;;;0.60;0.10;;;12.10;1.00;;;;;;5013871;28;20444;-77
2022/09/28 09:42:51;;;;;;;0.60;0.10;;;12.20;1.00;;;;;;5027541;28;20493;-76
2022/09/28 09:45:31;;;;;;;0.60;0.10;;;12.30;1.00;;;;;;5045920;28;20454;-77
2022/09/28 09:48:03;;;;;;;0.60;0.20;;;12.40;1.00;;;;;;5033888;28;20497;-78
2022/09/28 09:50:38;;;;;;;0.60;0.10;;;12.40;1.00;;;;;;5034433;28;20560;-76
2022/09/28 09:53:17;;;;;;;0.60;0.10;;;12.30;1.00;;;;;;5034776;28;20443;-77
2022/09/28 09:55:50;;;;;;;0.80;0.37;;;12.40;1.00;;;;;;5033190;28;20451;-75
2022/09/28 09:58:21;;;;;;;0.60;0.10;;;12.40;1.00;;;;;;5033459;28;20459;-77
2022/09/28 10:00:54;;;;;;;0.60;0.10;;;12.50;1.00;;;;;;5032447;28;20513;-75
2022/09/28 10:03:26;;;;;;;0.60;0.10;;;12.50;1.00;;;;;;5032091;28;20462;-74
2022/09/28 10:05:57;;;;;;;0.60;0.10;;;12.60;1.00;;;;;;5032455;28;20505;-75
2022/09/28 10:08:28;;;;;;;0.60;0.20;;;12.70;1.00;;;;;;5032663;28;20472;-74
2022/09/28 10:11:07;;;;;;;0.80;0.30;;;12.70;1.00;;;;;;5032774;28;20467;-76
2022/09/28 10:13:35;;;;;;;0.60;0.10;;;12.80;1.00;;;;;;5033542;28;20443;-74
2022/09/28 10:16:05;;;;;;;1.63;0.30;;;12.60;1.00;;;;;;5033851;28;20497;-74
2022/09/28 10:18:33;;;;;;;0.60;0.10;;;12.60;1.00;;;;;;5032819;28;20521;-75
2022/09/28 10:21:01;;;;;;;0.60;0.10;;;12.60;1.00;;;;;;5032795;28;20452;-75
2022/09/28 10:23:32;;;;;;;0.60;0.10;;;12.70;1.00;;;;;;5032685;28;20502;-77
2022/09/28 10:26:05;;;;;;;0.60;0.10;;;12.70;1.00;;;;;;5032876;28;20436;-74
2022/09/28 10:28:39;;;;;;;0.60;0.10;;;12.80;1.00;;;;;;5033176;28;20475;-75
2022/09/28 10:31:37;;;;;;;0.60;0.10;;;12.90;1.00;;;;;;5033014;28;20522;-74
2022/09/28 10:34:07;;;;;;;0.60;0.10;;;12.90;1.00;;;;;;5031905;28;20459;-73
2022/09/28 10:36:46;;;;;;;0.60;0.10;;;13.00;1.00;;;;;;5032590;28;20487;-73
2022/09/28 10:39:28;;;;;;;0.60;0.10;;;13.00;1.00;;;;;;5032156;28;20446;-75
2022/09/28 10:41:58;;;;;;;0.70;0.50;;;13.10;1.00;;;;;;5032104;28;20462;-74
2022/09/28 10:44:27;;;;;;;0.60;0.10;;;13.10;1.00;;;;;;5032303;28;20439;-74
2022/09/28 10:47:01;;;;;;;0.60;0.10;;;12.90;1.00;;;;;;5032145;28;20443;-76
2022/09/28 10:49:38;;;;;;;0.80;0.77;;;12.90;1.00;;;;;;5032456;28;20435;-74
2022/09/28 10:52:32;;;;;;;0.60;0.10;;;13.00;1.00;;;;;;5031551;28;20475;-73
2022/09/28 10:55:00;;;;;;;0.60;0.10;;;13.10;1.00;;;;;;5032748;28;20817;-73
2022/09/28 10:57:33;;;;;;;0.60;0.10;;;13.50;1.00;;;;;;5032419;28;20526;-73
2022/09/28 11:00:02;;;;;;;0.60;0.10;;;13.50;1.00;;;;;;5032235;28;20446;-74
2022/09/28 11:02:34;;;;;;;0.60;0.10;;;13.70;1.00;;;;;;5032037;28;20881;-73
2022/09/28 11:05:06;;;;;;;0.93;0.93;;;13.70;1.00;;;;;;5031862;28;20453;-74
2022/09/28 11:07:44;;;;;;;0.60;0.10;;;13.60;1.00;;;;;;5031785;28;20459;-75
2022/09/28 11:10:20;;;;;;;0.60;0.10;;;13.50;1.00;;;;;;5030086;28;20443;-76
2022/09/28 11:12:50;;;;;;;0.60;0.10;;;13.40;1.00;;;;;;5012972;28;20471;-72
2022/09/28 11:15:20;;;;;;;0.60;0.10;;;13.20;1.00;;;;;;5015346;28;20487;-76
2022/09/28 11:17:50;;;;;;;0.60;0.10;;;13.20;1.00;;;;;;5029922;28;20480;-77
2022/09/28 11:20:31;;;;;;;0.60;0.10;;;13.30;1.00;;;;;;5033990;28;20497;-76
2022/09/28 11:23:14;;;;;;;0.60;0.10;;;13.30;1.00;;;;;;5034280;28;20524;-76
2022/09/28 11:25:43;;;;;;;0.60;0.10;;;13.30;1.00;;;;;;5034863;28;20476;-77
2022/09/28 11:28:22;;;;;;;0.83;0.37;;;13.40;1.00;;;;;;5039175;28;20506;-75
2022/09/28 11:30:52;;;;;;;0.60;0.20;;;13.40;1.00;;;;;;5038108;28;21007;-75
2022/09/28 11:33:28;;;;;;;0.60;0.10;;;13.40;1.00;;;;;;5033294;28;20443;-74
2022/09/28 11:36:05;;;;;;;0.60;0.10;;;13.50;1.00;;;;;;5037937;28;20446;-76
2022/09/28 11:38:39;;;;;;;0.60;0.10;;;13.50;1.00;;;;;;5038258;28;20497;-77
2022/09/28 11:41:24;;;;;;;0.60;0.10;;;13.60;1.00;;;;;;5038438;28;20467;-77
2022/09/28 11:44:09;;;;;;;0.60;0.30;;;13.70;1.00;;;;;;5036890;28;20508;-77
2022/09/28 11:46:45;;;;;;;0.80;0.33;;;13.80;1.00;;;;;;5037375;28;20813;-75
2022/09/28 11:49:26;;;;;;;0.60;0.10;;;13.60;1.00;;;;;;5037531;28;20985;-76
2022/09/28 11:51:59;;;;;;;0.60;0.27;;;13.40;1.00;;;;;;5037446;28;20874;-75
2022/09/28 11:54:32;;;;;;;0.60;0.10;;;13.40;1.00;;;;;;5038116;28;20565;-75
2022/09/28 11:57:03;;;;;;;0.60;0.20;;;13.40;1.00;;;;;;5038226;28;20443;-75
2022/09/28 11:59:35;;;;;;;0.60;0.10;;;13.30;1.00;;;;;;5037043;28;20941;-75
2022/09/28 12:02:13;;;;;;;0.60;0.10;;;13.20;1.00;;;;;;5037198;28;20431;-77
2022/09/28 12:04:46;;;;;;;1.30;0.67;;;13.20;1.00;;;;;;5036474;28;20475;-76
2022/09/28 12:07:18;;;;;;;0.60;0.10;;;13.30;1.00;;;;;;5035999;28;20616;-75
2022/09/28 12:09:53;;;;;;;0.60;0.20;;;13.30;1.00;;;;;;5036386;28;20456;-76
2022/09/28 12:12:27;;;;;;;0.60;0.20;;;13.40;1.00;;;;;;5017865;28;20483;-76
2022/09/28 12:14:59;;;;;;;0.60;0.10;;;13.70;1.00;;;;;;5018870;28;20451;-76
2022/09/28 12:17:34;;;;;;;0.60;0.20;;;13.80;1.00;;;;;;5017774;28;21028;-74
2022/09/28 12:20:14;;;;;;;0.60;0.10;;;13.70;1.00;;;;;;5019865;28;20447;-75
2022/09/28 12:22:48;;;;;;;0.60;0.10;;;13.70;1.00;;;;;;5018520;28;20475;-76
2022/09/28 12:25:20;;;;;;;0.60;0.10;;;13.70;1.00;;;;;;5018246;28;20448;-77
2022/09/28 12:27:52;;;;;;;2.03;1.93;;;13.70;1.00;;;;;;5034468;28;20567;-75
2022/09/28 12:30:24;;;;;;;0.93;0.93;;;13.80;1.00;;;;;;5036610;28;20447;-75
2022/09/28 12:32:56;;;;;;;0.60;0.10;;;13.90;1.00;;;;;;5031123;28;20527;-74
2022/09/28 12:35:39;;;;;;;0.60;0.10;;;13.90;1.00;;;;;;5038777;28;20444;-76
2022/09/28 12:38:16;;;;;;;0.60;0.10;;;;;;;;;;5036110;28;20529;-76
2022/09/28 12:40:52;;;;;;;0.60;0.20;;;14.10;1.00;;;;;;5035612;28;20952;-74
2022/09/28 12:43:33;;;;;;;0.60;0.20;;;14.00;1.00;;;;;;5035092;28;20936;-75
2022/09/28 12:46:23;;;;;;;0.60;0.10;;;13.90;1.00;;;;;;5035551;28;20524;-74
2022/09/28 12:49:05;;;;;;;0.87;0.40;;;13.80;1.00;;;;;;5035789;28;20527;-77
2022/09/28 12:51:58;;;;;;;0.60;0.20;;;13.70;1.00;;;;;;5035571;28;20530;-72
2022/09/28 12:55:02;;;;;;;0.60;0.10;;;13.60;1.00;;;;;;5035130;28;20489;-73
2022/09/28 12:57:53;;;;;;;0.60;0.10;;;13.50;1.00;;;;;;5000099;28;20581;-75
2022/09/28 13:00:23;;;;;;;0.60;0.10;;;13.60;1.00;;;;;;5035458;28;20923;-76
2022/09/28 13:03:15;;;;;;;0.80;0.30;;;13.60;1.00;;;;;;5036114;28;20443;-74
2022/09/28 13:06:20;;;;;;;0.60;0.10;;;13.60;1.00;;;;;;5035925;28;20452;-75
2022/09/28 13:09:02;;;;;;;0.60;0.10;;;13.60;1.00;;;;;;5010384;28;20513;-76
2022/09/28 13:11:34;;;;;;;0.60;0.10;;;13.60;1.00;;;;;;5035828;28;20435;-77
2022/09/28 13:14:25;;;;;;;0.60;0.20;;;13.60;1.00;;;;;;5036137;28;20462;-77
2022/09/28 13:16:58;;;;;;;0.60;0.10;;;13.60;1.00;;;;;;5035825;28;20869;-74
2022/09/28 13:19:37;;;;;;;0.60;0.10;;;13.60;1.00;;;;;;5034885;28;20451;-79
2022/09/28 13:22:27;;;;;;;0.60;0.17;;;13.60;1.00;;;;;;5036175;28;20900;-74
2022/09/28 13:25:01;;;;;;;0.60;0.10;;;13.50;1.00;;;;;;5035296;28;20444;-77
2022/09/28 13:27:34;;;;;;;0.70;0.20;;;13.30;1.00;;;;;;5034148;28;20892;-77
2022/09/28 13:30:06;;;;;;;0.60;0.20;;;13.30;1.00;;;;;;5035143;28;20505;-75